Terminal Aerodrome Forecast
Issued by NWS Tampa Bay Area, FL

Home | Current Version | Previous Version | Text Only | Print | Product List | Glossary On
Versions: 1 2 3 4 5 6 7 8 9 10 11 12 13 14 15 16 17 18 19 20 21 22 23 24 25 26
000
FTUS42 KTBW 200300 AAA
TAFTPA
TAF AMD
KTPA 200300Z 2003/2024 06005KT 6SM -SHRA FEW010 BKN035 OVC080
     FM200600 11006KT P6SM VCSH BKN035 OVC080
     FM200900 06006KT P6SM VCSH BKN040 OVC100
     FM201800 24004KT P6SM VCSH BKN045 OVC080=

USA.gov is the U.S. government's official web portal to all federal, state and local government web resources and services.